Portada
METAR-TAF:

METAR-TAF

Aeroports :

Phrae, Tailàndia

latitud: 18-10N, longitud: 100-10E, altitud: 161 m

Observació

L'informe es va fer fa 4 hores i 16 minuts, a les 11:00 UTC
Vent 3 kt del Sud/Sud-Est
Temperatura 30°C
Humitat 40%
Pressió 1012 hPa
Visibilitat: 5000 m
calitja

METAR: VTCP 181100Z 16003KT 5000 HZ NSC 30/15 Q1012 NOSIG

Hora: 22:16 (15:16 UTC)

Pronòstic

L'informe es va fer fa 4 hores i 16 minuts, a les 11:00 UTC
Pronòstic vàlid del 18 a les 12 UTC al 19 a les 12 UTC
Vent 5 kt del Sud/Sud-Est
Visibilitat: 5000 m
Escasses núvols a una alçada de 2500 ft
calitja
Evolucionant progressivament
l' 18 a les 21 UTC al 18 a les 23 UTC
Visibilitat: 2000 m
boirina
Evolucionant progressivament
l' 19 a les 01 UTC al 19 a les 03 UTC
Visibilitat: 4000 m
Escasses núvols a una alçada de 2500 ft
calitja

TAF: VTCP 181100Z 1812/1912 16005KT 5000 HZ FEW025 BECMG 1821/1823 2000 BR NSC BECMG 1901/1903 4000 HZ FEW025

Observacions i pronòstics meteorològics de més de 4000 aeroports (METAR i TAF).

Les estacions disponibles són els punts grocs i vermells al mapa.

Posi el ratolí al punt desitjat per veure el nom de l'estació.

Feu clic per veure les observacions i els pronòstics meteorològics.

Per canviar el mapa: feu clic els botons verds amb una creu de color negre per apropar; al botó verd amb un guió per allunyar la imatge; o en les fletxes verdes per a mapes adjacents.


METAR-TAF: